sensor_id;sensor_type;location;lat;lon;timestamp;pressure;altitude;pressure_sealevel;temperature;humidity
49397;BME280;35615;41.410;2.194;2023-04-02T00:08:01;101367.66;;;17.05;52.33
49397;BME280;35615;41.410;2.194;2023-04-02T00:15:31;101383.34;;;17.05;52.31
49397;BME280;35615;41.410;2.194;2023-04-02T00:17:59;101386.22;;;16.78;53.57
49397;BME280;35615;41.410;2.194;2023-04-02T00:20:29;101390.28;;;16.67;53.74
49397;BME280;35615;41.410;2.194;2023-04-02T00:22:58;101396.75;;;16.47;54.26
49397;BME280;35615;41.410;2.194;2023-04-02T00:25:27;101385.22;;;16.73;53.41
49397;BME280;35615;41.410;2.194;2023-04-02T00:27:56;101383.09;;;16.57;54.16
49397;BME280;35615;41.410;2.194;2023-04-02T00:30:24;101384.44;;;16.76;53.50
49397;BME280;35615;41.410;2.194;2023-04-02T00:32:53;101380.19;;;16.81;53.61
49397;BME280;35615;41.410;2.194;2023-04-02T00:35:25;101381.88;;;16.79;53.67
49397;BME280;35615;41.410;2.194;2023-04-02T00:37:53;101380.22;;;16.82;53.54
49397;BME280;35615;41.410;2.194;2023-04-02T00:40:27;101383.88;;;16.91;50.52
49397;BME280;35615;41.410;2.194;2023-04-02T00:42:59;101385.00;;;17.02;48.67
49397;BME280;35615;41.410;2.194;2023-04-02T00:45:32;101387.63;;;17.02;48.82
49397;BME280;35615;41.410;2.194;2023-04-02T00:51:12;101374.47;;;16.97;43.24
49397;BME280;35615;41.410;2.194;2023-04-02T00:53:41;101362.09;;;16.89;42.91
49397;BME280;35615;41.410;2.194;2023-04-02T00:56:15;101365.72;;;16.95;42.86
49397;BME280;35615;41.410;2.194;2023-04-02T00:58:50;101361.50;;;17.00;43.02
49397;BME280;35615;41.410;2.194;2023-04-02T01:01:22;101354.53;;;17.01;41.42
49397;BME280;35615;41.410;2.194;2023-04-02T01:03:59;101358.00;;;17.00;39.72
49397;BME280;35615;41.410;2.194;2023-04-02T01:06:29;101357.19;;;17.02;40.13
49397;BME280;35615;41.410;2.194;2023-04-02T01:09:17;101363.00;;;16.53;38.24
49397;BME280;35615;41.410;2.194;2023-04-02T01:11:57;101378.72;;;16.56;39.08
49397;BME280;35615;41.410;2.194;2023-04-02T01:20:46;101363.28;;;16.65;37.38
49397;BME280;35615;41.410;2.194;2023-04-02T01:23:31;101359.03;;;16.69;37.14
49397;BME280;35615;41.410;2.194;2023-04-02T01:26:31;101367.88;;;16.74;37.37
49397;BME280;35615;41.410;2.194;2023-04-02T01:31:33;101367.31;;;16.89;38.88
49397;BME280;35615;41.410;2.194;2023-04-02T01:34:03;101356.03;;;16.90;38.99
49397;BME280;35615;41.410;2.194;2023-04-02T01:45:10;101349.13;;;16.93;38.63
49397;BME280;35615;41.410;2.194;2023-04-02T01:47:39;101357.13;;;16.99;39.30
49397;BME280;35615;41.410;2.194;2023-04-02T01:50:25;101349.16;;;16.95;38.71
49397;BME280;35615;41.410;2.194;2023-04-02T01:53:09;101346.66;;;16.98;38.27
49397;BME280;35615;41.410;2.194;2023-04-02T01:55:45;101351.03;;;16.99;39.09
49397;BME280;35615;41.410;2.194;2023-04-02T01:58:17;101357.81;;;16.92;38.94
49397;BME280;35615;41.410;2.194;2023-04-02T02:03:25;101349.28;;;16.99;39.43
49397;BME280;35615;41.410;2.194;2023-04-02T02:05:52;101342.16;;;16.92;39.63
49397;BME280;35615;41.410;2.194;2023-04-02T02:10:53;101342.34;;;17.00;39.63
49397;BME280;35615;41.410;2.194;2023-04-02T02:13:21;101334.47;;;16.98;39.85
49397;BME280;35615;41.410;2.194;2023-04-02T02:15:49;101327.50;;;16.97;39.89
49397;BME280;35615;41.410;2.194;2023-04-02T02:18:20;101327.34;;;16.91;39.94
49397;BME280;35615;41.410;2.194;2023-04-02T02:20:56;101335.19;;;16.91;40.13
49397;BME280;35615;41.410;2.194;2023-04-02T02:23:27;101337.72;;;16.87;39.39
49397;BME280;35615;41.410;2.194;2023-04-02T02:25:55;101333.47;;;16.54;36.35
49397;BME280;35615;41.410;2.194;2023-04-02T02:28:26;101324.78;;;16.55;34.99
49397;BME280;35615;41.410;2.194;2023-04-02T02:30:59;101336.13;;;16.57;35.22
49397;BME280;35615;41.410;2.194;2023-04-02T02:33:37;101327.19;;;16.46;33.54
49397;BME280;35615;41.410;2.194;2023-04-02T02:36:21;101333.66;;;16.27;33.71
49397;BME280;35615;41.410;2.194;2023-04-02T02:39:33;101336.50;;;16.36;33.01
49397;BME280;35615;41.410;2.194;2023-04-02T02:42:19;101335.41;;;16.26;33.37
49397;BME280;35615;41.410;2.194;2023-04-02T02:44:55;101337.25;;;16.31;33.61
49397;BME280;35615;41.410;2.194;2023-04-02T02:47:33;101344.44;;;16.41;33.37
49397;BME280;35615;41.410;2.194;2023-04-02T02:50:27;101335.59;;;16.34;33.29
49397;BME280;35615;41.410;2.194;2023-04-02T02:56:22;101340.31;;;16.14;33.15
49397;BME280;35615;41.410;2.194;2023-04-02T02:59:05;101335.69;;;16.03;32.81
49397;BME280;35615;41.410;2.194;2023-04-02T03:02:13;101336.25;;;16.25;33.87
49397;BME280;35615;41.410;2.194;2023-04-02T03:04:46;101338.78;;;16.22;34.48
49397;BME280;35615;41.410;2.194;2023-04-02T03:07:21;101348.94;;;16.12;33.86
49397;BME280;35615;41.410;2.194;2023-04-02T03:15:31;101343.66;;;16.09;31.96
49397;BME280;35615;41.410;2.194;2023-04-02T03:23:37;101324.59;;;15.77;32.67
49397;BME280;35615;41.410;2.194;2023-04-02T03:26:18;101323.78;;;15.79;33.05
49397;BME280;35615;41.410;2.194;2023-04-02T03:28:56;101323.63;;;15.73;33.30
49397;BME280;35615;41.410;2.194;2023-04-02T03:31:31;101324.78;;;15.84;33.40
49397;BME280;35615;41.410;2.194;2023-04-02T03:37:09;101323.63;;;15.73;33.57
49397;BME280;35615;41.410;2.194;2023-04-02T03:39:59;101312.81;;;15.59;33.58
49397;BME280;35615;41.410;2.194;2023-04-02T03:42:59;101315.31;;;15.55;34.22
49397;BME280;35615;41.410;2.194;2023-04-02T03:45:26;101317.44;;;15.38;34.03
49397;BME280;35615;41.410;2.194;2023-04-02T03:48:03;101330.94;;;15.25;34.02
49397;BME280;35615;41.410;2.194;2023-04-02T03:50:38;101329.56;;;15.37;34.70
49397;BME280;35615;41.410;2.194;2023-04-02T03:53:08;101318.19;;;15.34;34.57
49397;BME280;35615;41.410;2.194;2023-04-02T03:55:36;101322.28;;;15.26;34.71
49397;BME280;35615;41.410;2.194;2023-04-02T03:58:20;101316.25;;;15.27;34.93
49397;BME280;35615;41.410;2.194;2023-04-02T04:00:54;101312.91;;;15.01;34.64
49397;BME280;35615;41.410;2.194;2023-04-02T04:06:13;101336.06;;;14.92;34.55
49397;BME280;35615;41.410;2.194;2023-04-02T04:11:34;101345.00;;;14.44;35.49
49397;BME280;35615;41.410;2.194;2023-04-02T04:14:16;101351.00;;;14.43;35.42
49397;BME280;35615;41.410;2.194;2023-04-02T04:19:24;101362.06;;;14.38;35.57
49397;BME280;35615;41.410;2.194;2023-04-02T04:22:28;101365.72;;;14.70;35.08
49397;BME280;35615;41.410;2.194;2023-04-02T04:25:18;101366.31;;;14.61;34.88
49397;BME280;35615;41.410;2.194;2023-04-02T04:28:09;101366.97;;;14.54;35.16
49397;BME280;35615;41.410;2.194;2023-04-02T04:30:52;101370.22;;;14.47;35.31
49397;BME280;35615;41.410;2.194;2023-04-02T04:33:41;101363.50;;;14.53;35.32
49397;BME280;35615;41.410;2.194;2023-04-02T04:36:27;101368.69;;;14.28;35.24
49397;BME280;35615;41.410;2.194;2023-04-02T04:39:10;101371.00;;;14.44;35.67
49397;BME280;35615;41.410;2.194;2023-04-02T04:41:47;101364.53;;;14.33;35.70
49397;BME280;35615;41.410;2.194;2023-04-02T04:44:24;101364.28;;;14.25;35.47
49397;BME280;35615;41.410;2.194;2023-04-02T04:47:05;101363.13;;;14.43;35.52
49397;BME280;35615;41.410;2.194;2023-04-02T04:49:56;101362.28;;;14.44;35.16
49397;BME280;35615;41.410;2.194;2023-04-02T04:52:28;101371.97;;;14.22;35.16
49397;BME280;35615;41.410;2.194;2023-04-02T04:54:57;101378.41;;;14.34;35.64
49397;BME280;35615;41.410;2.194;2023-04-02T05:02:52;101388.13;;;14.39;35.29
49397;BME280;35615;41.410;2.194;2023-04-02T05:05:28;101391.00;;;14.21;35.64
49397;BME280;35615;41.410;2.194;2023-04-02T05:08:31;101396.03;;;14.17;35.39
49397;BME280;35615;41.410;2.194;2023-04-02T05:11:15;101394.06;;;14.35;35.63
49397;BME280;35615;41.410;2.194;2023-04-02T05:13:49;101395.50;;;14.27;35.84
49397;BME280;35615;41.410;2.194;2023-04-02T05:16:30;101402.94;;;14.16;35.71
49397;BME280;35615;41.410;2.194;2023-04-02T05:19:11;101401.03;;;14.11;35.54
49397;BME280;35615;41.410;2.194;2023-04-02T05:24:46;101417.00;;;14.21;35.38
49397;BME280;35615;41.410;2.194;2023-04-02T05:30:48;101408.78;;;14.09;36.17
49397;BME280;35615;41.410;2.194;2023-04-02T05:32:57;101415.53;;;14.04;36.48
49397;BME280;35615;41.410;2.194;2023-04-02T05:35:30;101416.53;;;14.08;36.26
49397;BME280;35615;41.410;2.194;2023-04-02T05:38:01;101410.66;;;14.13;36.28
49397;BME280;35615;41.410;2.194;2023-04-02T05:40:35;101411.47;;;14.38;36.55
49397;BME280;35615;41.410;2.194;2023-04-02T05:43:09;101419.06;;;14.32;36.11
49397;BME280;35615;41.410;2.194;2023-04-02T05:45:45;101431.06;;;14.03;36.33
49397;BME280;35615;41.410;2.194;2023-04-02T05:48:24;101423.78;;;14.18;36.30
49397;BME280;35615;41.410;2.194;2023-04-02T05:50:56;101416.53;;;14.33;36.17
49397;BME280;35615;41.410;2.194;2023-04-02T05:58:41;101434.72;;;14.33;37.33
49397;BME280;35615;41.410;2.194;2023-04-02T06:04:26;101450.91;;;14.50;36.47
49397;BME280;35615;41.410;2.194;2023-04-02T06:07:00;101445.59;;;14.21;36.99
49397;BME280;35615;41.410;2.194;2023-04-02T06:09:37;101454.50;;;14.30;36.69
49397;BME280;35615;41.410;2.194;2023-04-02T06:14:46;101458.34;;;14.15;37.20
49397;BME280;35615;41.410;2.194;2023-04-02T06:17:15;101460.13;;;14.16;37.02
49397;BME280;35615;41.410;2.194;2023-04-02T06:19:44;101448.38;;;14.28;36.96
49397;BME280;35615;41.410;2.194;2023-04-02T06:22:30;101460.16;;;14.42;37.01
49397;BME280;35615;41.410;2.194;2023-04-02T06:25:16;101453.72;;;14.56;36.70
49397;BME280;35615;41.410;2.194;2023-04-02T06:27:49;101452.41;;;14.69;36.34
49397;BME280;35615;41.410;2.194;2023-04-02T06:30:36;101457.69;;;14.72;36.70
49397;BME280;35615;41.410;2.194;2023-04-02T06:33:10;101454.41;;;14.77;36.74
49397;BME280;35615;41.410;2.194;2023-04-02T06:35:42;101447.09;;;14.66;36.94
49397;BME280;35615;41.410;2.194;2023-04-02T06:38:20;101454.69;;;14.60;36.09
49397;BME280;35615;41.410;2.194;2023-04-02T06:40:55;101454.03;;;14.65;36.70
49397;BME280;35615;41.410;2.194;2023-04-02T06:44:11;101453.41;;;14.74;36.53
49397;BME280;35615;41.410;2.194;2023-04-02T06:46:59;101460.19;;;14.43;36.54
49397;BME280;35615;41.410;2.194;2023-04-02T06:49:37;101454.69;;;14.60;35.95
49397;BME280;35615;41.410;2.194;2023-04-02T06:52:22;101462.50;;;14.60;35.88
49397;BME280;35615;41.410;2.194;2023-04-02T06:54:50;101458.34;;;14.65;35.84
49397;BME280;35615;41.410;2.194;2023-04-02T06:57:18;101462.59;;;14.63;35.48
49397;BME280;35615;41.410;2.194;2023-04-02T06:59:47;101455.56;;;14.60;35.91
49397;BME280;35615;41.410;2.194;2023-04-02T07:02:24;101448.28;;;14.75;35.70
49397;BME280;35615;41.410;2.194;2023-04-02T07:05:04;101453.53;;;14.77;35.38
49397;BME280;35615;41.410;2.194;2023-04-02T07:07:34;101444.94;;;14.79;35.25
49397;BME280;35615;41.410;2.194;2023-04-02T07:10:04;101450.13;;;14.79;35.15
49397;BME280;35615;41.410;2.194;2023-04-02T07:12:34;101451.41;;;14.92;35.21
49397;BME280;35615;41.410;2.194;2023-04-02T07:15:01;101452.81;;;14.82;35.53
49397;BME280;35615;41.410;2.194;2023-04-02T07:17:30;101463.41;;;14.62;35.32
49397;BME280;35615;41.410;2.194;2023-04-02T07:19:58;101452.13;;;14.61;35.39
49397;BME280;35615;41.410;2.194;2023-04-02T07:22:25;101459.22;;;14.92;35.08
49397;BME280;35615;41.410;2.194;2023-04-02T07:25:03;101465.03;;;14.85;35.15
49397;BME280;35615;41.410;2.194;2023-04-02T07:27:31;101458.91;;;14.83;35.29
49397;BME280;35615;41.410;2.194;2023-04-02T07:30:01;101468.03;;;14.70;35.60
49397;BME280;35615;41.410;2.194;2023-04-02T07:32:30;101462.75;;;14.94;35.32
49397;BME280;35615;41.410;2.194;2023-04-02T07:34:57;101459.75;;;15.09;35.16
49397;BME280;35615;41.410;2.194;2023-04-02T07:37:24;101458.59;;;14.99;35.24
49397;BME280;35615;41.410;2.194;2023-04-02T07:39:52;101467.19;;;14.97;35.06
49397;BME280;35615;41.410;2.194;2023-04-02T07:42:21;101450.63;;;14.95;35.54
49397;BME280;35615;41.410;2.194;2023-04-02T07:44:54;101450.56;;;15.20;34.93
49397;BME280;35615;41.410;2.194;2023-04-02T07:47:21;101455.81;;;15.22;34.74
49397;BME280;35615;41.410;2.194;2023-04-02T07:49:48;101457.41;;;15.18;34.13
49397;BME280;35615;41.410;2.194;2023-04-02T07:52:16;101456.28;;;15.38;34.52
49397;BME280;35615;41.410;2.194;2023-04-02T07:54:43;101460.09;;;15.50;34.18
49397;BME280;35615;41.410;2.194;2023-04-02T07:57:11;101478.16;;;15.44;34.35
49397;BME280;35615;41.410;2.194;2023-04-02T07:59:38;101477.38;;;15.46;34.23
49397;BME280;35615;41.410;2.194;2023-04-02T08:02:06;101469.91;;;15.58;33.87
49397;BME280;35615;41.410;2.194;2023-04-02T08:04:33;101467.69;;;15.71;33.68
49397;BME280;35615;41.410;2.194;2023-04-02T08:07:00;101469.91;;;15.87;33.53
49397;BME280;35615;41.410;2.194;2023-04-02T08:09:28;101472.16;;;16.06;33.38
49397;BME280;35615;41.410;2.194;2023-04-02T08:11:58;101477.94;;;15.96;32.97
49397;BME280;35615;41.410;2.194;2023-04-02T08:14:25;101468.06;;;16.16;32.47
49397;BME280;35615;41.410;2.194;2023-04-02T08:16:53;101470.13;;;16.62;32.74
49397;BME280;35615;41.410;2.194;2023-04-02T08:19:32;101470.34;;;16.68;32.15
49397;BME280;35615;41.410;2.194;2023-04-02T08:22:23;101490.00;;;16.90;31.97
49397;BME280;35615;41.410;2.194;2023-04-02T08:24:56;101485.25;;;17.08;31.79
49397;BME280;35615;41.410;2.194;2023-04-02T08:27:38;101482.59;;;17.46;31.06
49397;BME280;35615;41.410;2.194;2023-04-02T08:30:11;101486.75;;;17.38;30.42
49397;BME280;35615;41.410;2.194;2023-04-02T08:32:42;101491.59;;;18.01;31.21
49397;BME280;35615;41.410;2.194;2023-04-02T08:35:19;101493.03;;;18.31;30.38
49397;BME280;35615;41.410;2.194;2023-04-02T08:37:59;101497.44;;;18.32;29.10
49397;BME280;35615;41.410;2.194;2023-04-02T08:40:33;101481.97;;;18.45;29.47
49397;BME280;35615;41.410;2.194;2023-04-02T08:48:39;101493.38;;;19.00;28.27
49397;BME280;35615;41.410;2.194;2023-04-02T08:51:25;101476.97;;;19.12;28.65
49397;BME280;35615;41.410;2.194;2023-04-02T08:53:55;101479.00;;;19.31;28.39
49397;BME280;35615;41.410;2.194;2023-04-02T08:56:46;101468.38;;;19.22;27.76
49397;BME280;35615;41.410;2.194;2023-04-02T09:04:55;101445.19;;;20.25;27.23
49397;BME280;35615;41.410;2.194;2023-04-02T09:07:23;101443.03;;;20.76;27.59
49397;BME280;35615;41.410;2.194;2023-04-02T09:09:52;101442.25;;;20.89;26.54
49397;BME280;35615;41.410;2.194;2023-04-02T09:12:26;101444.28;;;21.34;25.85
49397;BME280;35615;41.410;2.194;2023-04-02T09:15:21;101435.28;;;20.97;24.61
49397;BME280;35615;41.410;2.194;2023-04-02T09:18:14;101446.09;;;21.48;24.67
49397;BME280;35615;41.410;2.194;2023-04-02T09:20:43;101450.47;;;21.45;25.32
49397;BME280;35615;41.410;2.194;2023-04-02T09:23:20;101447.06;;;21.65;24.50
49397;BME280;35615;41.410;2.194;2023-04-02T09:25:49;101449.78;;;21.95;23.47
49397;BME280;35615;41.410;2.194;2023-04-02T09:28:30;101450.59;;;21.74;25.19
49397;BME280;35615;41.410;2.194;2023-04-02T09:31:08;101453.69;;;21.02;24.17
49397;BME280;35615;41.410;2.194;2023-04-02T09:33:43;101434.66;;;21.29;24.25
49397;BME280;35615;41.410;2.194;2023-04-02T09:39:03;101456.00;;;22.25;24.02
49397;BME280;35615;41.410;2.194;2023-04-02T09:41:34;101446.38;;;22.36;24.41
49397;BME280;35615;41.410;2.194;2023-04-02T09:44:13;101449.88;;;22.67;23.19
49397;BME280;35615;41.410;2.194;2023-04-02T09:46:58;101450.75;;;22.25;23.08
49397;BME280;35615;41.410;2.194;2023-04-02T09:52:17;101444.63;;;22.88;22.52
49397;BME280;35615;41.410;2.194;2023-04-02T09:55:04;101447.22;;;23.13;22.54
49397;BME280;35615;41.410;2.194;2023-04-02T09:57:32;101454.16;;;23.44;22.22
49397;BME280;35615;41.410;2.194;2023-04-02T10:00:22;101461.16;;;23.61;20.93
49397;BME280;35615;41.410;2.194;2023-04-02T10:03:18;101461.22;;;23.41;21.78
49397;BME280;35615;41.410;2.194;2023-04-02T10:05:48;101463.84;;;23.35;22.20
49397;BME280;35615;41.410;2.194;2023-04-02T10:08:28;101468.13;;;23.75;21.72
49397;BME280;35615;41.410;2.194;2023-04-02T10:10:59;101455.81;;;23.76;22.00
49397;BME280;35615;41.410;2.194;2023-04-02T10:13:30;101438.00;;;24.13;20.64
49397;BME280;35615;41.410;2.194;2023-04-02T10:16:13;101435.91;;;24.59;20.82
49397;BME280;35615;41.410;2.194;2023-04-02T10:18:47;101444.22;;;24.06;20.35
49397;BME280;35615;41.410;2.194;2023-04-02T10:21:24;101434.94;;;24.73;19.87
49397;BME280;35615;41.410;2.194;2023-04-02T10:23:54;101428.53;;;24.92;19.99
49397;BME280;35615;41.410;2.194;2023-04-02T10:26:56;101445.94;;;25.16;19.10
49397;BME280;35615;41.410;2.194;2023-04-02T10:32:59;101431.28;;;24.84;18.84
49397;BME280;35615;41.410;2.194;2023-04-02T10:40:33;101424.34;;;24.74;18.94
49397;BME280;35615;41.410;2.194;2023-04-02T10:49:37;101408.03;;;25.18;19.16
49397;BME280;35615;41.410;2.194;2023-04-02T10:54:45;101387.69;;;26.47;17.97
49397;BME280;35615;41.410;2.194;2023-04-02T11:03:09;101378.59;;;25.46;18.00
49397;BME280;35615;41.410;2.194;2023-04-02T11:05:56;101382.13;;;26.62;17.63
49397;BME280;35615;41.410;2.194;2023-04-02T11:08:31;101380.00;;;27.26;17.44
49397;BME280;35615;41.410;2.194;2023-04-02T11:16:26;101368.13;;;26.54;17.73
49397;BME280;35615;41.410;2.194;2023-04-02T11:24:47;101346.63;;;27.17;16.04
49397;BME280;35615;41.410;2.194;2023-04-02T11:27:21;101347.28;;;26.82;16.59
49397;BME280;35615;41.410;2.194;2023-04-02T11:34:57;101339.09;;;27.77;16.42
49397;BME280;35615;41.410;2.194;2023-04-02T11:42:45;101339.22;;;28.44;14.53
49397;BME280;35615;41.410;2.194;2023-04-02T11:50:38;101348.88;;;26.90;15.75
49397;BME280;35615;41.410;2.194;2023-04-02T12:09:50;101325.91;;;27.74;15.43
49397;BME280;35615;41.410;2.194;2023-04-02T12:12:35;101327.19;;;27.94;15.52
49397;BME280;35615;41.410;2.194;2023-04-02T12:15:06;101318.72;;;28.49;15.59
49397;BME280;35615;41.410;2.194;2023-04-02T12:17:50;101322.81;;;28.61;15.88
49397;BME280;35615;41.410;2.194;2023-04-02T12:22:54;101318.38;;;28.61;15.83
49397;BME280;35615;41.410;2.194;2023-04-02T12:25:29;101308.84;;;28.53;15.78
49397;BME280;35615;41.410;2.194;2023-04-02T12:30:40;101312.59;;;28.46;16.57
49397;BME280;35615;41.410;2.194;2023-04-02T12:35:49;101295.00;;;28.42;16.71
49397;BME280;35615;41.410;2.194;2023-04-02T12:44:00;101285.25;;;28.06;17.07
49397;BME280;35615;41.410;2.194;2023-04-02T12:46:30;101302.66;;;29.16;16.71
49397;BME280;35615;41.410;2.194;2023-04-02T12:49:51;101293.19;;;28.42;16.50
49397;BME280;35615;41.410;2.194;2023-04-02T12:51:53;101294.06;;;28.08;17.22
49397;BME280;35615;41.410;2.194;2023-04-02T12:54:22;101292.16;;;29.10;16.97
49397;BME280;35615;41.410;2.194;2023-04-02T12:56:51;101290.41;;;29.38;17.03
49397;BME280;35615;41.410;2.194;2023-04-02T12:59:33;101288.22;;;29.53;16.38
49397;BME280;35615;41.410;2.194;2023-04-02T13:02:24;101288.22;;;29.53;18.69
49397;BME280;35615;41.410;2.194;2023-04-02T13:04:55;101288.66;;;29.93;19.61
49397;BME280;35615;41.410;2.194;2023-04-02T13:07:24;101295.56;;;29.99;19.86
49397;BME280;35615;41.410;2.194;2023-04-02T13:09:54;101289.56;;;29.38;21.53
49397;BME280;35615;41.410;2.194;2023-04-02T13:12:33;101280.38;;;30.01;22.18
49397;BME280;35615;41.410;2.194;2023-04-02T13:15:04;101267.78;;;30.07;21.99
49397;BME280;35615;41.410;2.194;2023-04-02T13:20:41;101260.78;;;29.50;20.86
49397;BME280;35615;41.410;2.194;2023-04-02T13:25:57;101272.91;;;28.04;24.21
49397;BME280;35615;41.410;2.194;2023-04-02T13:28:25;101272.44;;;27.88;24.47
49397;BME280;35615;41.410;2.194;2023-04-02T13:30:52;101276.63;;;26.33;26.11
49397;BME280;35615;41.410;2.194;2023-04-02T13:33:21;101282.41;;;24.81;27.97
49397;BME280;35615;41.410;2.194;2023-04-02T13:35:48;101269.50;;;25.87;26.55
49397;BME280;35615;41.410;2.194;2023-04-02T13:38:30;101274.19;;;25.70;27.60
49397;BME280;35615;41.410;2.194;2023-04-02T13:40:58;101274.75;;;25.32;28.38
49397;BME280;35615;41.410;2.194;2023-04-02T13:43:28;101265.91;;;24.60;28.98
49397;BME280;35615;41.410;2.194;2023-04-02T13:45:57;101264.16;;;24.64;28.99
49397;BME280;35615;41.410;2.194;2023-04-02T13:48:25;101261.06;;;26.16;26.91
49397;BME280;35615;41.410;2.194;2023-04-02T13:50:54;101241.63;;;26.17;26.96
49397;BME280;35615;41.410;2.194;2023-04-02T13:53:28;101246.19;;;27.39;25.47
49397;BME280;35615;41.410;2.194;2023-04-02T13:55:56;101233.59;;;25.72;27.04
49397;BME280;35615;41.410;2.194;2023-04-02T13:58:24;101227.44;;;25.72;27.41
49397;BME280;35615;41.410;2.194;2023-04-02T14:00:51;101231.81;;;25.13;27.77
49397;BME280;35615;41.410;2.194;2023-04-02T14:03:21;101233.75;;;24.99;27.22
49397;BME280;35615;41.410;2.194;2023-04-02T14:06:12;101231.56;;;25.31;26.18
49397;BME280;35615;41.410;2.194;2023-04-02T14:11:40;101227.56;;;24.24;28.27
49397;BME280;35615;41.410;2.194;2023-04-02T14:17:10;101219.31;;;24.56;27.62
49397;BME280;35615;41.410;2.194;2023-04-02T14:23:19;101205.00;;;25.37;26.24
49397;BME280;35615;41.410;2.194;2023-04-02T14:26:03;101223.06;;;24.36;27.46
49397;BME280;35615;41.410;2.194;2023-04-02T14:34:37;101216.75;;;24.49;27.34
49397;BME280;35615;41.410;2.194;2023-04-02T14:40:16;101218.72;;;24.31;28.08
49397;BME280;35615;41.410;2.194;2023-04-02T14:43:03;101228.53;;;24.16;28.83
49397;BME280;35615;41.410;2.194;2023-04-02T14:45:57;101224.31;;;23.99;29.43
49397;BME280;35615;41.410;2.194;2023-04-02T14:51:21;101216.94;;;24.33;29.12
49397;BME280;35615;41.410;2.194;2023-04-02T14:53:57;101221.91;;;23.72;30.22
49397;BME280;35615;41.410;2.194;2023-04-02T14:56:26;101215.25;;;23.19;30.72
49397;BME280;35615;41.410;2.194;2023-04-02T14:59:20;101213.59;;;22.98;31.53
49397;BME280;35615;41.410;2.194;2023-04-02T15:01:53;101237.44;;;22.66;32.28
49397;BME280;35615;41.410;2.194;2023-04-02T15:04:36;101219.91;;;22.54;32.88
49397;BME280;35615;41.410;2.194;2023-04-02T15:07:21;101223.38;;;22.61;33.56
49397;BME280;35615;41.410;2.194;2023-04-02T15:12:32;101225.06;;;22.96;33.30
49397;BME280;35615;41.410;2.194;2023-04-02T15:18:13;101228.63;;;22.72;34.30
49397;BME280;35615;41.410;2.194;2023-04-02T15:20:58;101224.03;;;23.16;33.48
49397;BME280;35615;41.410;2.194;2023-04-02T15:23:37;101221.56;;;22.89;33.58
49397;BME280;35615;41.410;2.194;2023-04-02T15:26:18;101224.28;;;22.58;33.55
49397;BME280;35615;41.410;2.194;2023-04-02T15:32:46;101230.34;;;22.88;33.54
49397;BME280;35615;41.410;2.194;2023-04-02T15:43:23;101236.34;;;23.17;33.59
49397;BME280;35615;41.410;2.194;2023-04-02T15:58:09;101246.69;;;23.45;33.16
49397;BME280;35615;41.410;2.194;2023-04-02T16:09:28;101256.59;;;23.09;34.16
49397;BME280;35615;41.410;2.194;2023-04-02T16:12:14;101243.22;;;23.38;33.56
49397;BME280;35615;41.410;2.194;2023-04-02T16:14:45;101238.72;;;23.59;33.23
49397;BME280;35615;41.410;2.194;2023-04-02T16:17:18;101239.50;;;23.70;33.31
49397;BME280;35615;41.410;2.194;2023-04-02T16:20:27;101229.72;;;23.84;33.20
49397;BME280;35615;41.410;2.194;2023-04-02T16:23:02;101225.31;;;23.83;33.10
49397;BME280;35615;41.410;2.194;2023-04-02T16:28:20;101218.19;;;23.93;34.00
49397;BME280;35615;41.410;2.194;2023-04-02T16:31:01;101223.31;;;24.10;33.69
49397;BME280;35615;41.410;2.194;2023-04-02T16:48:30;101289.56;;;23.84;38.49
49397;BME280;35615;41.410;2.194;2023-04-02T16:51:21;101298.31;;;23.87;38.31
49397;BME280;35615;41.410;2.194;2023-04-02T16:54:07;101307.28;;;23.60;38.86
49397;BME280;35615;41.410;2.194;2023-04-02T17:01:53;101323.09;;;23.60;38.49
49397;BME280;35615;41.410;2.194;2023-04-02T17:12:54;101335.72;;;22.89;41.28
49397;BME280;35615;41.410;2.194;2023-04-02T17:15:31;101341.00;;;22.88;40.97
49397;BME280;35615;41.410;2.194;2023-04-02T17:18:10;101354.19;;;22.86;41.26
49397;BME280;35615;41.410;2.194;2023-04-02T17:20:59;101362.09;;;22.56;42.49
49397;BME280;35615;41.410;2.194;2023-04-02T17:23:42;101366.50;;;22.65;42.22
49397;BME280;35615;41.410;2.194;2023-04-02T17:26:26;101381.44;;;22.44;43.72
49397;BME280;35615;41.410;2.194;2023-04-02T17:29:00;101370.91;;;22.27;43.99
49397;BME280;35615;41.410;2.194;2023-04-02T17:31:33;101372.66;;;22.42;43.10
49397;BME280;35615;41.410;2.194;2023-04-02T17:34:33;101385.84;;;22.31;43.66
49397;BME280;35615;41.410;2.194;2023-04-02T17:37:23;101384.06;;;22.21;43.78
49397;BME280;35615;41.410;2.194;2023-04-02T17:48:28;101405.06;;;22.03;44.00
49397;BME280;35615;41.410;2.194;2023-04-02T17:51:12;101398.91;;;21.90;44.27
49397;BME280;35615;41.410;2.194;2023-04-02T17:56:55;101418.13;;;21.62;45.31
49397;BME280;35615;41.410;2.194;2023-04-02T17:59:59;101428.56;;;21.45;47.00
49397;BME280;35615;41.410;2.194;2023-04-02T18:05:53;101441.66;;;21.34;46.33
49397;BME280;35615;41.410;2.194;2023-04-02T18:08:29;101454.84;;;21.43;45.19
49397;BME280;35615;41.410;2.194;2023-04-02T18:16:59;101469.59;;;21.18;45.96
49397;BME280;35615;41.410;2.194;2023-04-02T18:27:53;101490.53;;;21.06;48.26
49397;BME280;35615;41.410;2.194;2023-04-02T18:30:46;101496.53;;;20.92;48.38
49397;BME280;35615;41.410;2.194;2023-04-02T18:33:34;101493.72;;;20.66;49.16
49397;BME280;35615;41.410;2.194;2023-04-02T18:36:36;101501.44;;;20.50;49.46
49397;BME280;35615;41.410;2.194;2023-04-02T18:42:04;101530.56;;;20.75;48.52
49397;BME280;35615;41.410;2.194;2023-04-02T18:45:21;101535.81;;;20.75;50.10
49397;BME280;35615;41.410;2.194;2023-04-02T18:50:28;101545.38;;;20.70;49.24
49397;BME280;35615;41.410;2.194;2023-04-02T18:52:56;101540.06;;;20.62;49.23